createdAt,value
2018-06-01T00:01:36.918Z,2.53
2018-06-01T00:04:04.427Z,2.08
2018-06-01T00:06:32.365Z,2.10
2018-06-01T00:08:59.864Z,3.20
2018-06-01T00:11:27.411Z,2.10
2018-06-01T00:13:54.913Z,2.22
2018-06-01T00:16:22.446Z,2.20
2018-06-01T00:18:49.965Z,1.98
2018-06-01T00:21:17.901Z,1.80
2018-06-01T00:23:45.405Z,1.83
2018-06-01T00:26:12.949Z,1.98
2018-06-01T00:28:40.847Z,1.92
2018-06-01T00:31:08.373Z,2.08
2018-06-01T00:33:35.873Z,1.95
2018-06-01T00:36:03.398Z,1.85
2018-06-01T00:38:30.897Z,2.12
2018-06-01T00:40:58.440Z,1.85
2018-06-01T00:43:25.942Z,1.83
2018-06-01T00:45:53.882Z,2.20
2018-06-01T00:48:21.433Z,2.50
2018-06-01T00:50:48.963Z,2.00
2018-06-01T00:53:16.478Z,2.15
2018-06-01T00:55:44.008Z,2.20
2018-06-01T00:58:11.510Z,1.98
2018-06-01T01:00:39.042Z,2.20
2018-06-01T01:03:06.553Z,2.12
2018-06-01T01:05:34.087Z,2.90
2018-06-01T01:08:01.597Z,1.73
2018-06-01T01:10:29.889Z,1.70
2018-06-01T01:12:57.413Z,1.98
2018-06-01T01:15:24.933Z,1.83
2018-06-01T01:17:52.460Z,1.98
2018-06-01T01:20:19.969Z,1.92
2018-06-01T01:22:47.507Z,1.75
2018-06-01T01:25:15.009Z,1.83
2018-06-01T01:27:42.534Z,1.58
2018-06-01T01:30:10.048Z,1.25
2018-06-01T01:32:37.577Z,1.77
2018-06-01T01:35:05.076Z,1.80
2018-06-01T01:37:32.619Z,1.77
2018-06-01T01:40:00.133Z,1.52
2018-06-01T01:42:27.697Z,1.65
2018-06-01T01:44:55.590Z,1.73
2018-06-01T01:47:23.143Z,1.73
2018-06-01T01:49:53.394Z,1.52
2018-06-01T01:52:20.926Z,1.20
2018-06-01T01:54:48.429Z,1.75
2018-06-01T01:57:15.973Z,1.42
2018-06-01T01:59:43.481Z,1.25
2018-06-01T02:02:11.014Z,1.85
2018-06-01T02:04:38.950Z,1.60
2018-06-01T02:07:06.495Z,1.45
2018-06-01T02:09:34.953Z,1.50
2018-06-01T02:12:02.460Z,1.20
2018-06-01T02:14:30.001Z,2.08
2018-06-01T02:16:57.501Z,1.52
2018-06-01T02:19:25.042Z,1.55
2018-06-01T02:21:52.945Z,1.65
2018-06-01T02:24:20.506Z,1.10
2018-06-01T02:26:48.025Z,1.48
2018-06-01T02:29:15.570Z,1.40
2018-06-01T02:31:43.122Z,1.27
2018-06-01T02:34:11.058Z,1.20
2018-06-01T02:36:38.564Z,1.20
2018-06-01T02:39:06.100Z,1.20
2018-06-01T02:41:34.001Z,1.55
2018-06-01T02:44:01.503Z,1.27
2018-06-01T02:46:29.053Z,1.05
2018-06-01T02:48:56.549Z,1.17
2018-06-01T02:51:24.090Z,0.90
2018-06-01T02:53:51.993Z,1.27
2018-06-01T02:56:19.530Z,1.10
2018-06-01T02:58:47.061Z,0.93
2018-06-01T03:01:14.585Z,1.50
2018-06-01T03:03:42.088Z,2.10
2018-06-01T03:06:09.625Z,1.20
2018-06-01T03:08:37.132Z,1.40
2018-06-01T03:11:04.669Z,1.20
2018-06-01T03:13:32.191Z,1.37
2018-06-01T03:15:59.718Z,1.20
2018-06-01T03:18:27.221Z,1.10
2018-06-01T03:20:55.166Z,1.15
2018-06-01T03:23:22.670Z,1.30
2018-06-01T03:25:50.169Z,0.98
2018-06-01T03:28:17.708Z,1.20
2018-06-01T03:30:45.213Z,1.42
2018-06-01T03:33:12.740Z,1.52
2018-06-01T03:35:40.242Z,1.42
2018-06-01T03:38:07.769Z,1.42
2018-06-01T03:40:35.273Z,1.02
2018-06-01T03:43:02.813Z,1.20
2018-06-01T03:45:30.330Z,1.37
2018-06-01T03:47:57.873Z,1.50
2018-06-01T03:50:25.379Z,1.35
2018-06-01T03:52:52.901Z,1.48
2018-06-01T03:55:20.407Z,1.75
2018-06-01T03:57:47.951Z,1.08
2018-06-01T04:00:15.457Z,1.40
2018-06-01T04:02:43.018Z,1.55
2018-06-01T04:05:10.909Z,1.60
2018-06-01T04:07:38.417Z,1.52
2018-06-01T04:10:05.958Z,1.30
2018-06-01T04:12:33.458Z,1.87
2018-06-01T04:15:01.390Z,1.17
2018-06-01T04:17:28.897Z,1.45
2018-06-01T04:19:56.429Z,1.30
2018-06-01T04:22:24.341Z,1.10
2018-06-01T04:24:51.874Z,1.27
2018-06-01T04:27:19.389Z,1.70
2018-06-01T04:29:46.917Z,1.67
2018-06-01T04:32:14.424Z,1.10
2018-06-01T04:34:41.957Z,1.27
2018-06-01T04:37:09.473Z,1.77
2018-06-01T04:39:37.021Z,1.52
2018-06-01T04:42:04.519Z,1.45
2018-06-01T04:44:32.049Z,1.17
2018-06-01T04:46:59.563Z,1.40
2018-06-01T04:49:27.095Z,1.10
2018-06-01T04:51:54.599Z,1.30
2018-06-01T04:54:22.141Z,1.35
2018-06-01T04:56:49.646Z,1.17
2018-06-01T04:59:17.160Z,1.33
2018-06-01T05:01:45.337Z,1.58
2018-06-01T05:04:12.837Z,1.20
2018-06-01T05:06:40.365Z,1.12
2018-06-01T05:09:07.883Z,1.30
2018-06-01T05:11:35.417Z,1.37
2018-06-01T05:14:03.321Z,1.50
2018-06-01T05:16:30.846Z,1.25
2018-06-01T05:18:58.345Z,1.35
2018-06-01T05:21:26.269Z,1.20
2018-06-01T05:23:54.163Z,1.40
2018-06-01T05:26:21.697Z,1.58
2018-06-01T05:28:49.211Z,1.08
2018-06-01T05:31:16.743Z,1.40
2018-06-01T05:33:44.265Z,1.80
2018-06-01T05:36:11.801Z,1.40
2018-06-01T05:38:39.699Z,1.35
2018-06-01T05:41:07.226Z,1.67
2018-06-01T05:43:34.725Z,1.30
2018-06-01T05:46:02.272Z,1.58
2018-06-01T05:48:29.829Z,1.30
2018-06-01T05:50:57.331Z,1.40
2018-06-01T05:53:24.857Z,1.20
2018-06-01T05:55:52.373Z,1.87
2018-06-01T05:58:19.907Z,1.58
2018-06-01T06:00:47.811Z,1.70
2018-06-01T06:03:15.337Z,1.30
2018-06-01T06:05:42.833Z,1.30
2018-06-01T06:08:10.361Z,1.70
2018-06-01T06:10:37.873Z,1.20
2018-06-01T06:13:05.416Z,1.30
2018-06-01T06:15:32.927Z,1.60
2018-06-01T06:18:01.377Z,1.25
2018-06-01T06:20:28.877Z,1.12
2018-06-01T06:22:56.401Z,1.40
2018-06-01T06:25:23.909Z,4.03
2018-06-01T06:27:51.412Z,1.10
2018-06-01T06:30:19.337Z,1.60
2018-06-01T06:32:46.843Z,1.33
2018-06-01T06:35:14.369Z,1.55
2018-06-01T06:37:41.926Z,1.40
2018-06-01T06:40:09.449Z,1.55
2018-06-01T06:42:36.946Z,1.33
2018-06-01T06:45:04.870Z,1.50
2018-06-01T06:47:32.373Z,1.80
2018-06-01T06:49:59.896Z,1.37
2018-06-01T06:52:27.418Z,1.48
2018-06-01T06:54:54.977Z,1.33
2018-06-01T06:57:22.474Z,1.52
2018-06-01T06:59:49.973Z,1.27
2018-06-01T07:02:17.517Z,1.15
2018-06-01T07:04:45.018Z,1.17
2018-06-01T07:07:12.569Z,1.67
2018-06-01T07:09:40.077Z,1.42
2018-06-01T07:12:08.009Z,1.45
2018-06-01T07:14:35.533Z,0.90
2018-06-01T07:17:03.079Z,1.20
2018-06-01T07:19:30.573Z,1.27
2018-06-01T07:21:58.109Z,0.85
2018-06-01T07:24:25.620Z,0.90
2018-06-01T07:26:53.182Z,1.30
2018-06-01T07:29:20.690Z,1.15
2018-06-01T07:31:48.206Z,1.30
2018-06-01T07:34:15.741Z,1.00
2018-06-01T07:36:43.640Z,1.12
2018-06-01T07:39:11.166Z,1.10
2018-06-01T07:41:38.680Z,1.17
2018-06-01T07:44:06.611Z,0.88
2018-06-01T07:46:34.121Z,0.90
2018-06-01T07:49:01.650Z,0.80
2018-06-01T07:51:29.177Z,1.20
2018-06-01T07:53:56.705Z,1.02
2018-06-01T07:56:24.602Z,1.00
2018-06-01T07:58:52.137Z,0.90
2018-06-01T08:01:19.655Z,0.98
2018-06-01T08:03:47.191Z,1.20
2018-06-01T08:06:14.710Z,1.17
2018-06-01T08:08:42.253Z,1.00
2018-06-01T08:11:09.765Z,1.12
2018-06-01T08:13:37.257Z,1.00
2018-06-01T08:16:05.181Z,1.02
2018-06-01T08:18:32.694Z,1.10
2018-06-01T08:21:00.233Z,1.02
2018-06-01T08:23:28.136Z,1.00
2018-06-01T08:25:55.657Z,1.27
2018-06-01T08:28:23.553Z,1.20
2018-06-01T08:30:51.185Z,1.00
2018-06-01T08:33:18.697Z,1.10
2018-06-01T08:35:46.321Z,1.55
2018-06-01T08:38:13.834Z,1.20
2018-06-01T08:40:41.819Z,1.20
2018-06-01T08:43:09.298Z,1.10
2018-06-01T08:45:36.839Z,1.20
2018-06-01T08:48:04.353Z,1.23
2018-06-01T08:50:31.869Z,1.25
2018-06-01T08:52:59.397Z,1.02
2018-06-01T08:55:26.895Z,1.10
2018-06-01T08:57:54.637Z,0.82
2018-06-01T09:00:22.141Z,1.20
2018-06-01T09:02:49.670Z,1.05
2018-06-01T09:05:17.169Z,1.02
2018-06-01T09:07:45.097Z,1.17
2018-06-01T09:10:12.640Z,1.00
2018-06-01T09:12:40.150Z,1.00
2018-06-01T09:15:07.650Z,1.33
2018-06-01T09:17:35.177Z,1.15
2018-06-01T09:20:02.689Z,1.50
2018-06-01T09:22:30.234Z,1.30
2018-06-01T09:24:57.756Z,1.50
2018-06-01T09:27:25.309Z,1.42
2018-06-01T09:29:52.813Z,1.33
2018-06-01T09:32:20.362Z,1.00
2018-06-01T09:34:47.877Z,1.20
2018-06-01T09:37:15.403Z,1.50
2018-06-01T09:39:43.300Z,1.27
2018-06-01T09:42:10.829Z,1.20
2018-06-01T09:44:38.333Z,1.42
2018-06-01T09:47:05.866Z,1.17
2018-06-01T09:49:33.381Z,0.98
2018-06-01T09:52:00.933Z,1.12
2018-06-01T09:54:28.453Z,1.55
2018-06-01T09:56:56.202Z,1.27
2018-06-01T09:59:23.726Z,1.52
2018-06-01T10:01:51.237Z,1.33
2018-06-01T10:04:18.770Z,1.33
2018-06-01T10:06:46.279Z,0.98
2018-06-01T10:09:14.245Z,1.50
2018-06-01T10:11:41.758Z,1.23
2018-06-01T10:14:09.281Z,1.30
2018-06-01T10:16:36.793Z,1.27
2018-06-01T10:19:04.325Z,1.20
2018-06-01T10:21:31.834Z,1.30
2018-06-01T10:23:59.361Z,1.23
2018-06-01T10:26:26.912Z,1.35
2018-06-01T10:28:54.417Z,1.30
2018-06-01T10:31:21.930Z,1.40
2018-06-01T10:33:49.473Z,1.40
2018-06-01T10:36:16.990Z,1.00
2018-06-01T10:38:44.536Z,1.20
2018-06-01T10:41:12.044Z,1.30
2018-06-01T10:43:39.577Z,1.30
2018-06-01T10:46:07.090Z,1.23
2018-06-01T10:48:34.621Z,1.73
2018-06-01T10:51:02.549Z,1.30
2018-06-01T10:53:30.077Z,1.17
2018-06-01T10:55:57.613Z,1.10
2018-06-01T10:58:25.541Z,1.30
2018-06-01T11:00:53.037Z,1.30
2018-06-01T11:03:20.565Z,1.50
2018-06-01T11:05:48.078Z,1.30
2018-06-01T11:08:15.635Z,1.35
2018-06-01T11:10:43.137Z,1.40
2018-06-01T11:13:10.649Z,1.30
2018-06-01T11:15:38.186Z,1.58
2018-06-01T11:18:05.703Z,1.42
2018-06-01T11:20:33.260Z,1.17
2018-06-01T11:23:00.757Z,1.62
2018-06-01T11:25:28.300Z,1.30
2018-06-01T11:27:55.809Z,1.48
2018-06-01T11:30:23.346Z,1.33
2018-06-01T11:32:50.875Z,1.17
2018-06-01T11:35:18.423Z,1.33
2018-06-01T11:37:45.933Z,0.90
2018-06-01T11:40:13.484Z,1.05
2018-06-01T11:42:40.992Z,1.77
2018-06-01T11:45:08.520Z,1.52
2018-06-01T11:47:36.025Z,1.50
2018-06-01T11:50:03.561Z,1.27
2018-06-01T11:52:31.080Z,1.30
2018-06-01T11:54:58.610Z,1.70
2018-06-01T11:57:26.170Z,2.35
2018-06-01T11:59:53.677Z,1.23
2018-06-01T12:02:21.569Z,2.40
2018-06-01T12:04:49.105Z,1.10
2018-06-01T12:07:16.614Z,1.27
2018-06-01T12:09:44.153Z,1.10
2018-06-01T12:12:11.657Z,1.40
2018-06-01T12:14:39.187Z,0.95
2018-06-01T12:17:06.690Z,1.33
2018-06-01T12:19:34.233Z,1.67
2018-06-01T12:22:01.745Z,1.20
2018-06-01T12:24:29.276Z,1.60
2018-06-01T12:26:56.784Z,1.50
2018-06-01T12:29:24.357Z,1.55
2018-06-01T12:31:52.245Z,1.50
2018-06-01T12:34:19.805Z,1.58
2018-06-01T12:36:47.305Z,1.25
2018-06-01T12:39:14.822Z,1.60
2018-06-01T12:41:42.357Z,1.30
2018-06-01T12:44:09.868Z,1.60
2018-06-01T12:46:37.401Z,1.58
2018-06-01T12:49:04.914Z,1.48
2018-06-01T12:51:32.441Z,1.52
2018-06-01T12:53:59.951Z,1.30
2018-06-01T12:56:27.490Z,1.40
2018-06-01T12:58:54.992Z,1.50
2018-06-01T13:01:22.521Z,1.58
2018-06-01T13:03:50.039Z,1.45
2018-06-01T13:06:17.705Z,2.00
2018-06-01T13:08:45.208Z,1.73
2018-06-01T13:11:12.748Z,1.70
2018-06-01T13:13:40.254Z,1.70
2018-06-01T13:16:07.813Z,1.62
2018-06-01T13:18:35.714Z,1.80
2018-06-01T13:21:03.266Z,2.08
2018-06-01T13:23:30.804Z,1.90
2018-06-01T13:25:58.334Z,1.52
2018-06-01T13:28:26.042Z,1.90
2018-06-01T13:30:53.582Z,1.60
2018-06-01T13:33:21.085Z,1.65
2018-06-01T13:35:48.626Z,1.60
2018-06-01T13:38:16.129Z,1.70
2018-06-01T13:40:44.050Z,1.77
2018-06-01T13:43:11.561Z,1.55
2018-06-01T13:45:39.109Z,1.92
2018-06-01T13:48:07.017Z,1.45
2018-06-01T13:50:34.551Z,1.60
2018-06-01T13:53:02.061Z,1.50
2018-06-01T13:55:29.612Z,1.83
2018-06-01T13:57:57.117Z,1.95
2018-06-01T14:00:24.629Z,1.50
2018-06-01T14:02:52.170Z,1.70
2018-06-01T14:05:19.688Z,1.70
2018-06-01T14:07:47.221Z,1.60
2018-06-01T14:10:14.718Z,1.67
2018-06-01T14:12:42.261Z,1.58
2018-06-01T14:15:09.868Z,1.62
2018-06-01T14:17:37.425Z,1.70
2018-06-01T14:20:04.946Z,1.83
2018-06-01T14:22:32.476Z,1.23
2018-06-01T14:24:59.976Z,1.40
2018-06-01T14:27:28.372Z,1.58
2018-06-01T14:29:55.873Z,1.40
2018-06-01T14:32:23.405Z,1.37
2018-06-01T14:34:50.928Z,1.40
2018-06-01T14:37:18.477Z,1.30
2018-06-01T14:39:45.981Z,1.77
2018-06-01T14:42:13.530Z,1.60
2018-06-01T14:44:41.025Z,1.80
2018-06-01T14:47:08.577Z,1.70
2018-06-01T14:49:36.089Z,1.60
2018-06-01T14:52:04.013Z,1.60
2018-06-01T14:54:31.571Z,1.60
2018-06-01T14:56:59.071Z,1.30
2018-06-01T14:59:26.565Z,1.33
2018-06-01T15:01:54.118Z,1.60
2018-06-01T15:04:21.640Z,1.17
2018-06-01T15:06:49.165Z,1.42
2018-06-01T15:09:16.668Z,1.60
2018-06-01T15:11:44.201Z,1.58
2018-06-01T15:14:12.093Z,1.70
2018-06-01T15:16:39.621Z,1.37
2018-06-01T15:19:07.120Z,1.73
2018-06-01T15:21:34.657Z,1.65
2018-06-01T15:24:02.186Z,1.50
2018-06-01T15:26:30.099Z,1.77
2018-06-01T15:28:57.625Z,1.60
2018-06-01T15:31:25.141Z,1.50
2018-06-01T15:33:52.722Z,1.52
2018-06-01T15:36:20.209Z,1.65
2018-06-01T15:38:47.755Z,1.70
2018-06-01T15:41:15.253Z,1.48
2018-06-01T15:43:42.779Z,1.55
2018-06-01T15:46:10.274Z,1.55
2018-06-01T15:48:37.818Z,1.65
2018-06-01T15:51:05.327Z,1.58
2018-06-01T15:53:32.857Z,2.00
2018-06-01T15:56:00.758Z,1.75
2018-06-01T15:58:28.331Z,1.30
2018-06-01T16:00:55.837Z,1.33
2018-06-01T16:03:23.765Z,2.17
2018-06-01T16:05:51.265Z,1.65
2018-06-01T16:08:18.925Z,1.60
2018-06-01T16:10:46.441Z,1.40
2018-06-01T16:13:13.975Z,1.67
2018-06-01T16:15:41.481Z,1.77
2018-06-01T16:18:09.418Z,1.42
2018-06-01T16:20:36.930Z,3.20
2018-06-01T16:23:04.464Z,1.30
2018-06-01T16:25:31.985Z,1.50
2018-06-01T16:27:59.522Z,1.55
2018-06-01T16:30:27.048Z,1.75
2018-06-01T16:32:54.585Z,2.20
2018-06-01T16:35:22.488Z,1.15
2018-06-01T16:37:50.017Z,1.70
2018-06-01T16:40:17.521Z,1.52
2018-06-01T16:42:45.048Z,1.55
2018-06-01T16:45:12.547Z,1.30
2018-06-01T16:47:40.101Z,1.37
2018-06-01T16:50:07.613Z,1.25
2018-06-01T16:52:35.113Z,1.17
2018-06-01T16:55:02.635Z,1.83
2018-06-01T16:57:30.133Z,1.60
2018-06-01T16:59:58.073Z,1.15
2018-06-01T17:02:25.588Z,1.48
2018-06-01T17:04:53.122Z,1.50
2018-06-01T17:07:21.038Z,1.20
2018-06-01T17:09:48.606Z,1.25
2018-06-01T17:12:16.110Z,1.25
2018-06-01T17:14:43.670Z,1.30
2018-06-01T17:17:11.183Z,1.48
2018-06-01T17:19:38.742Z,1.30
2018-06-01T17:22:06.255Z,1.65
2018-06-01T17:24:33.788Z,1.30
2018-06-01T17:27:01.309Z,1.27
2018-06-01T17:29:28.853Z,1.50
2018-06-01T17:31:56.368Z,1.17
2018-06-01T17:34:23.930Z,1.50
2018-06-01T17:36:51.433Z,1.60
2018-06-01T17:39:18.967Z,1.50
2018-06-01T17:41:46.477Z,1.40
2018-06-01T17:44:14.035Z,1.50
2018-06-01T17:46:41.538Z,1.60
2018-06-01T17:49:09.081Z,1.50
2018-06-01T17:51:36.585Z,1.45
2018-06-01T17:54:04.522Z,1.70
2018-06-01T17:56:32.039Z,1.50
2018-06-01T17:58:59.573Z,1.87
2018-06-01T18:01:27.089Z,1.60
2018-06-01T18:03:54.621Z,1.70
2018-06-01T18:06:22.117Z,1.35
2018-06-01T18:08:49.641Z,1.37
2018-06-01T18:11:17.940Z,1.40
2018-06-01T18:13:45.470Z,1.80
2018-06-01T18:16:12.969Z,1.30
2018-06-01T18:18:40.877Z,1.70
2018-06-01T18:21:08.425Z,1.67
2018-06-01T18:23:35.921Z,1.50
2018-06-01T18:26:03.449Z,2.55
2018-06-01T18:28:30.967Z,1.95
2018-06-01T18:30:58.498Z,2.08
2018-06-01T18:33:26.003Z,1.37
2018-06-01T18:35:53.528Z,1.95
2018-06-01T18:38:21.033Z,1.77
2018-06-01T18:40:48.570Z,6.97
2018-06-01T18:43:16.073Z,5.80
2018-06-01T18:45:43.598Z,3.42
2018-06-01T18:48:11.109Z,2.75
2018-06-01T18:50:39.042Z,1.70
2018-06-01T18:53:06.545Z,1.65
2018-06-01T18:55:34.093Z,1.75
2018-06-01T18:58:01.596Z,1.77
2018-06-01T19:00:29.146Z,2.03
2018-06-01T19:02:56.644Z,2.20
2018-06-01T19:05:24.572Z,2.08
2018-06-01T19:07:52.072Z,1.85
2018-06-01T19:10:20.001Z,1.60
2018-06-01T19:12:47.503Z,1.90
2018-06-01T19:15:15.054Z,1.92
2018-06-01T19:17:42.579Z,2.20
2018-06-01T19:20:10.121Z,2.30
2018-06-01T19:22:37.677Z,2.10
2018-06-01T19:25:05.203Z,1.92
2018-06-01T19:27:32.702Z,2.22
2018-06-01T19:30:00.242Z,2.40
2018-06-01T19:32:27.741Z,2.08
2018-06-01T19:34:55.277Z,1.87
2018-06-01T19:37:23.211Z,1.95
2018-06-01T19:39:50.717Z,2.40
2018-06-01T19:42:18.246Z,2.35
2018-06-01T19:44:45.747Z,2.12
2018-06-01T19:47:13.281Z,2.20
2018-06-01T19:49:41.173Z,1.98
2018-06-01T19:52:08.705Z,2.05
2018-06-01T19:54:36.198Z,2.25
2018-06-01T19:57:03.725Z,1.92
2018-06-01T19:59:31.259Z,1.80
2018-06-01T20:01:58.777Z,2.30
2018-06-01T20:04:26.302Z,2.20
2018-06-01T20:06:53.847Z,2.15
2018-06-01T20:09:21.354Z,2.53
2018-06-01T20:11:48.947Z,2.42
2018-06-01T20:14:16.838Z,2.30
2018-06-01T20:16:44.369Z,1.95
2018-06-01T20:19:12.268Z,2.10
2018-06-01T20:21:39.804Z,2.50
2018-06-01T20:24:07.310Z,2.05
2018-06-01T20:26:34.838Z,2.62
2018-06-01T20:29:02.353Z,2.50
2018-06-01T20:31:29.932Z,2.45
2018-06-01T20:33:57.801Z,1.98
2018-06-01T20:36:25.334Z,2.35
2018-06-01T20:38:52.845Z,2.67
2018-06-01T20:41:20.377Z,2.08
2018-06-01T20:43:47.897Z,2.00
2018-06-01T20:46:15.422Z,1.90
2018-06-01T20:48:42.932Z,2.35
2018-06-01T20:51:10.493Z,1.90
2018-06-01T20:53:38.054Z,2.40
2018-06-01T20:56:05.590Z,2.17
2018-06-01T20:58:33.097Z,2.25
2018-06-01T21:01:00.607Z,2.20
2018-06-01T21:03:28.137Z,2.25
2018-06-01T21:05:55.638Z,2.20
2018-06-01T21:08:23.166Z,2.12
2018-06-01T21:10:50.661Z,2.30
2018-06-01T21:13:18.192Z,2.30
2018-06-01T21:15:45.714Z,2.20
2018-06-01T21:18:13.642Z,2.17
2018-06-01T21:20:41.154Z,2.90
2018-06-01T21:23:08.693Z,2.05
2018-06-01T21:25:36.594Z,2.47
2018-06-01T21:28:04.120Z,2.83
2018-06-01T21:30:31.638Z,2.37
2018-06-01T21:32:59.200Z,2.50
2018-06-01T21:35:26.704Z,2.37
2018-06-01T21:37:54.249Z,2.60
2018-06-01T21:40:21.745Z,2.70
2018-06-01T21:42:49.301Z,2.78
2018-06-01T21:45:16.804Z,2.70
2018-06-01T21:47:44.743Z,2.50
2018-06-01T21:50:12.253Z,3.10
2018-06-01T21:52:39.781Z,3.05
2018-06-01T21:55:07.681Z,2.75
2018-06-01T21:57:35.211Z,2.80
2018-06-01T22:00:02.734Z,2.67
2018-06-01T22:02:30.268Z,3.10
2018-06-01T22:04:57.770Z,3.42
2018-06-01T22:07:25.305Z,2.75
2018-06-01T22:09:53.218Z,2.62
2018-06-01T22:12:21.145Z,2.60
2018-06-01T22:14:48.648Z,2.50
2018-06-01T22:17:16.174Z,2.97
2018-06-01T22:19:43.673Z,2.53
2018-06-01T22:22:11.212Z,2.50
2018-06-01T22:24:38.721Z,2.40
2018-06-01T22:27:06.626Z,2.28
2018-06-01T22:29:34.166Z,2.42
2018-06-01T22:32:01.666Z,2.72
2018-06-01T22:34:29.219Z,2.42
2018-06-01T22:36:56.721Z,2.67
2018-06-01T22:39:24.256Z,2.22
2018-06-01T22:41:51.768Z,2.15
2018-06-01T22:44:19.301Z,1.90
2018-06-01T22:46:46.816Z,1.77
2018-06-01T22:49:14.345Z,2.17
2018-06-01T22:51:41.849Z,2.10
2018-06-01T22:54:09.393Z,2.00
2018-06-01T22:56:37.299Z,2.30
2018-06-01T22:59:04.830Z,1.70
2018-06-01T23:01:32.454Z,2.12
2018-06-01T23:03:59.984Z,1.80
2018-06-01T23:06:27.489Z,1.83
2018-06-01T23:08:55.437Z,2.08
2018-06-01T23:11:22.946Z,2.20
2018-06-01T23:13:50.477Z,2.30
2018-06-01T23:16:18.368Z,2.17
2018-06-01T23:18:45.893Z,2.60
2018-06-01T23:21:13.394Z,2.20
2018-06-01T23:23:41.389Z,2.12
2018-06-01T23:26:08.900Z,2.28
2018-06-01T23:28:36.428Z,2.22
2018-06-01T23:31:04.335Z,1.98
2018-06-01T23:33:31.892Z,2.40
2018-06-01T23:35:59.401Z,2.35
2018-06-01T23:38:27.325Z,2.30
2018-06-01T23:40:54.826Z,2.25
2018-06-01T23:43:22.348Z,1.95
2018-06-01T23:45:49.844Z,3.00
2018-06-01T23:48:17.393Z,2.30
2018-06-01T23:50:44.889Z,2.30
2018-06-01T23:53:12.444Z,2.17
2018-06-01T23:55:39.949Z,2.35
2018-06-01T23:58:07.461Z,2.22
